Palermo — V2IA7 — position and weather

sailwx.info

Track history (hours):
 
Tides and Currents Weather Stations Pressure Air Temp Water Temp Dewpoint Dewpoint Depression Visibility Wind Speed Wind Dir Waves Ship Positions

Palermo

Last reported at 2017-Jan-21 01:33 UTC. Time now 2017-Jan-23 04:27 UTC.
Position S 34°28' W 058°24'.

Length 118 m; draft 6 m.

Type: Cargo ship. MMSI: 304255000.

Date/timePositionNaut miles runAvg speedWind from/ knotsBaromVisibWave heightAir tempDewpointWater temp
2017-Jan-21 01:33S 34°28' W 058°24'1211.9
2017-Jan-21 00:34S 34°37' W 058°14'5 5.5
2017-Jan-20 23:33S 34°38' W 058°21'1 0.5
2017-Jan-20 21:29S 34°39' W 058°20'0 0.0
2017-Jan-20 15:20S 34°39' W 058°20'0 0.0
2017-Jan-20 01:29S 34°39' W 058°20'1 0.6
2017-Jan-20 00:33S 34°39' W 058°20'4 3.9
2017-Jan-19 23:31S 34°36' W 058°17'1111.0
2017-Jan-19 22:33S 34°39' W 058°04'1111.0
2017-Jan-19 21:33S 34°43' W 057°51'1010.0
2017-Jan-19 20:33S 34°45' W 057°39'10211.4
2017-Jan-19 11:33S 35°03' W 055°37'1313.2
2017-Jan-19 10:33S 35°12' W 055°24'1413.7
2017-Jan-19 09:33S 35°26' W 055°28'11113.2
2017-Jan-19 01:08S 37°08' W 056°21'1013.8
2017-Jan-19 00:26S 37°17' W 056°26'  
Track history (hours):
 
Tides and Currents Weather Stations Pressure Air Temp Water Temp Dewpoint Dewpoint Depression Visibility Wind Speed Wind Dir Waves Ship Positions

Palermo

Last reported at 2017-Jan-21 01:33 UTC. Time now 2017-Jan-23 04:27 UTC.
Position S 34°28' W 058°24'.

Length 118 m; draft 6 m.

Type: Cargo ship. MMSI: 304255000.

Date/timePositionNaut miles runAvg speedWind from/ knotsBaromVisibWave heightAir tempDewpointWater temp
2017-Jan-21 01:33S 34°28' W 058°24'1211.9
2017-Jan-21 00:34S 34°37' W 058°14'5 5.5
2017-Jan-20 23:33S 34°38' W 058°21'1 0.5
2017-Jan-20 21:29S 34°39' W 058°20'0 0.0
2017-Jan-20 15:20S 34°39' W 058°20'0 0.0
2017-Jan-20 01:29S 34°39' W 058°20'1 0.6
2017-Jan-20 00:33S 34°39' W 058°20'4 3.9
2017-Jan-19 23:31S 34°36' W 058°17'1111.0
2017-Jan-19 22:33S 34°39' W 058°04'1111.0
2017-Jan-19 21:33S 34°43' W 057°51'1010.0
2017-Jan-19 20:33S 34°45' W 057°39'10211.4
2017-Jan-19 11:33S 35°03' W 055°37'1313.2
2017-Jan-19 10:33S 35°12' W 055°24'1413.7
2017-Jan-19 09:33S 35°26' W 055°28'11113.2
2017-Jan-19 01:08S 37°08' W 056°21'1013.8
2017-Jan-19 00:26S 37°17' W 056°26'  

Dump ship's entire track history